Toledo Express Airport Toledo US
ICAO: KTOL
IATA: TOL
Category: Large
Scheduled Services: Yes

Elevation: 683 ft
TransAlt. 18000 ft.

Airport Communications:
APP/DEP:123.975
ATIS:118.75
CLNC DEL:121.75
GND:121.9
180 FW OPS SOF:143.85
TWR:118.1
UNICOM:122.95

KTOL Zoom In..

Runways:

(A) RW 07 length 10599 ft width 150 ft
ILS 109.70 / hdg 72

(B) RW 16 length 5599 ft width 150 ft
---- / hdg 162

(C) RW 25 length 10599 ft width 150 ft
ILS 108.70 / hdg 252

(D) RW 34 length 5599 ft width 150 ft
---- / hdg 342

Location; KTOL
Day. 07 / Time. 18.44 Zulu
* Altimeter: 29.74
* Temperature: 22° c. 71.6°f.
* Wind from: KTO° Speed L kn.
Dewpoint: 14° c.
Visibility: 10 Statute Miles.
Clouds: Scattered 2400 ft.
Clouds: Broken 7000 ft.

KTOL 071844Z 23011KT 10SM SCT024 BKN070 22/14 A2974 RMK AO2 T02220139 $


Wind From KTO°
Speed L kn.

 
 
jpsmedia worldairports.se 2020   terms of use